Time;durP1;ratioP1;P1;durP2;ratioP2;P2;SDS_P1;SDS_P2;PMS_P1;PMS_P2;Temp;Humidity;BMP_temperature;BMP_pressure;BME280_temperature;BME280_humidity;BME280_pressure;Samples;Min_cycle;Max_cycle;Signal;HPM_P1;HPM_P2
2021/01/10 00:00:53;;;;;;;;;;;;;;;-5.40;89.17;93230.66;1063470;55;20610;-83
2021/01/10 00:01:55;;;;;;;;;;;;;;;-5.54;89.29;93228.25;1063594;55;20165;-82
2021/01/10 00:02:56;;;;;;;;;;;;;;;-5.56;89.47;93225.19;1061396;56;20158;-82
2021/01/10 00:03:57;;;;;;;;;;;;;;;-5.50;89.24;93229.16;1059239;56;20179;-80
2021/01/10 00:04:58;;;;;;;;;;;;;;;-5.51;89.66;93229.47;1063557;55;20157;-82
2021/01/10 00:05:58;;;;;;;;;;;;;;;-5.40;89.52;93228.03;1068208;55;20160;-81
2021/01/10 00:06:59;;;;;;;;;;;;;;;-5.36;89.24;93228.94;1063394;55;20166;-82
2021/01/10 00:08:00;;;;;;;;;;;;;;;-5.39;89.07;93226.97;1061437;56;20158;-81
2021/01/10 00:09:00;;;;;;;;;;;;;;;-5.36;89.38;93228.94;1061378;56;20678;-82
2021/01/10 00:10:01;;;;;;;;;;;;;;;-5.36;89.40;93227.09;1061303;56;20158;-81
2021/01/10 00:11:02;;;;;;;;;;;;;;;-5.27;88.87;93221.84;1065490;55;20602;-83
2021/01/10 00:12:02;;;;;;;;;;;;;;;-5.29;88.51;93220.66;1065620;55;20165;-82
2021/01/10 00:13:04;;;;;;;;;;;;;;;-5.38;88.22;93220.69;1063440;55;20154;-82
2021/01/10 00:14:07;;;;;;;;;;;;;;;-5.33;88.29;93218.66;1063623;55;20220;-82
2021/01/10 00:15:10;;;;;;;;;;;;;;;-5.33;88.23;93220.50;1065531;55;20192;-82
2021/01/10 00:16:10;;;;;;;;;;;;;;;-5.42;87.61;93227.59;1063453;55;20188;-82
2021/01/10 00:17:15;;;;;;;;;;;;;;;-5.33;87.71;93223.88;1061399;56;20165;-83
2021/01/10 00:18:15;;;;;;;;;;;;;;;-5.45;87.65;93221.16;1061417;56;20170;-81
2021/01/10 00:19:16;;;;;;;;;;;;;;;-5.37;87.24;93220.38;1061328;56;20267;-81
2021/01/10 00:20:20;;;;;;;;;;;;;;;-5.45;87.38;93228.22;1063512;55;20166;-82
2021/01/10 00:21:20;;;;;;;;;;;;;;;-5.46;87.66;93219.63;1065591;55;20646;-84
2021/01/10 00:22:23;;;;;;;;;;;;;;;-5.38;87.94;93224.06;1063572;55;20170;-83
2021/01/10 00:23:24;;;;;;;;;;;;;;;-5.44;87.62;93222.72;1061433;56;20273;-83
2021/01/10 00:24:24;;;;;;;;;;;;;;;-5.46;88.11;93217.03;1061412;56;20564;-82
2021/01/10 00:25:25;;;;;;;;;;;;;;;-5.59;87.94;93216.16;1061405;56;20178;-81
2021/01/10 00:26:30;;;;;;;;;;;;;;;-5.54;88.07;93212.63;1061294;56;20650;-81
2021/01/10 00:27:31;;;;;;;;;;;;;;;-5.51;87.98;93219.81;1063826;55;20157;-82
2021/01/10 00:28:31;;;;;;;;;;;;;;;-5.51;87.70;93216.44;1065570;55;20157;-82
2021/01/10 00:29:33;;;;;;;;;;;;;;;-5.56;87.93;93220.00;1063471;55;20201;-84
2021/01/10 00:30:34;;;;;;;;;;;;;;;-5.50;88.15;93215.38;1063594;55;20629;-81
2021/01/10 00:31:36;;;;;;;;;;;;;;;-5.50;87.87;93221.34;1063434;55;20610;-82
2021/01/10 00:32:36;;;;;;;;;;;;;;;-5.48;87.75;93208.03;1063572;55;20181;-83
2021/01/10 00:33:37;;;;;;;;;;;;;;;-5.40;87.88;93218.41;1063424;55;20180;-82
2021/01/10 00:34:38;;;;;;;;;;;;;;;-5.41;87.70;93206.44;1061335;56;20182;-83
2021/01/10 00:35:38;;;;;;;;;;;;;;;-5.46;87.87;93216.28;1063464;55;20173;-82
2021/01/10 00:36:39;;;;;;;;;;;;;;;-5.41;88.01;93214.25;1063384;55;20255;-83
2021/01/10 00:37:43;;;;;;;;;;;;;;;-5.47;87.75;93218.13;1065285;55;20777;-82
2021/01/10 00:38:43;;;;;;;;;;;;;;;-5.47;87.79;93210.31;1063646;55;20641;-81
2021/01/10 00:39:45;;;;;;;;;;;;;;;-5.49;88.26;93215.03;1061381;56;20166;-81
2021/01/10 00:40:45;;;;;;;;;;;;;;;-5.50;88.50;93216.13;1063600;55;20671;-81
2021/01/10 00:41:46;;;;;;;;;;;;;;;-5.43;88.20;93213.81;1065692;55;20150;-82
2021/01/10 00:42:46;;;;;;;;;;;;;;;-5.47;88.39;93222.56;1063531;55;20168;-82
2021/01/10 00:43:47;;;;;;;;;;;;;;;-5.60;88.19;93226.91;1065494;55;20933;-82
2021/01/10 00:44:48;;;;;;;;;;;;;;;-5.61;87.64;93223.53;1065678;55;20173;-81
2021/01/10 00:45:48;;;;;;;;;;;;;;;-5.61;88.34;93227.97;1065520;55;20192;-82
2021/01/10 00:46:53;;;;;;;;;;;;;;;-5.65;88.31;93219.25;1063477;55;20665;-82
2021/01/10 00:47:54;;;;;;;;;;;;;;;-5.63;88.31;93223.06;1063529;55;20166;-83
2021/01/10 00:48:55;;;;;;;;;;;;;;;-5.61;88.52;93220.16;1065513;55;20180;-83
2021/01/10 00:49:55;;;;;;;;;;;;;;;-5.53;88.36;93221.97;1063302;55;20169;-82
2021/01/10 00:50:55;;;;;;;;;;;;;;;-5.49;88.19;93219.50;1065717;55;20606;-81
2021/01/10 00:51:56;;;;;;;;;;;;;;;-5.53;88.33;93219.38;1063529;55;20657;-81
2021/01/10 00:52:56;;;;;;;;;;;;;;;-5.60;88.13;93219.84;1061240;56;20170;-81
2021/01/10 00:53:57;;;;;;;;;;;;;;;-5.51;88.52;93221.66;1063575;55;20177;-82
2021/01/10 00:54:57;;;;;;;;;;;;;;;-5.49;88.19;93222.09;1065650;55;20174;-82
2021/01/10 00:55:58;;;;;;;;;;;;;;;-5.46;88.51;93217.03;1063287;55;20197;-81
2021/01/10 00:57:01;;;;;;;;;;;;;;;-5.43;88.25;93226.06;1063432;55;20283;-82
2021/01/10 00:58:03;;;;;;;;;;;;;;;-5.49;87.80;93219.50;1065843;55;20270;-83
2021/01/10 00:59:04;;;;;;;;;;;;;;;-5.47;87.89;93225.16;1065646;55;20185;-83
2021/01/10 01:00:06;;;;;;;;;;;;;;;-5.42;87.69;93230.97;1063528;55;20181;-82
2021/01/10 01:01:14;;;;;;;;;;;;;;;-5.41;87.31;93229.88;1065997;55;20212;-83
2021/01/10 01:02:14;;;;;;;;;;;;;;;-5.50;87.75;93228.41;1065658;55;20157;-83
2021/01/10 01:03:15;;;;;;;;;;;;;;;-5.55;88.09;93221.50;1063591;55;20180;-82
2021/01/10 01:04:16;;;;;;;;;;;;;;;-5.61;88.27;93228.75;1065739;55;20180;-83
2021/01/10 01:05:18;;;;;;;;;;;;;;;-5.52;88.36;93226.09;1068082;55;20171;-82
2021/01/10 01:06:19;;;;;;;;;;;;;;;-5.52;87.81;93233.16;1065596;55;20185;-82
2021/01/10 01:07:19;;;;;;;;;;;;;;;-5.51;87.63;93230.22;1061273;56;20154;-82
2021/01/10 01:08:21;;;;;;;;;;;;;;;-5.49;87.58;93233.28;1063558;55;20254;-82
2021/01/10 01:09:24;;;;;;;;;;;;;;;-5.48;87.00;93236.66;1065696;55;20177;-82
2021/01/10 01:10:24;;;;;;;;;;;;;;;-5.55;87.15;93228.56;1063421;55;20299;-82
2021/01/10 01:11:28;;;;;;;;;;;;;;;-5.51;87.21;93232.84;1065489;55;20267;-83
2021/01/10 01:12:30;;;;;;;;;;;;;;;-5.49;87.38;93227.31;1063675;55;20184;-82
2021/01/10 01:13:32;;;;;;;;;;;;;;;-5.54;87.12;93232.69;1063530;55;20649;-81
2021/01/10 01:14:35;;;;;;;;;;;;;;;-5.53;86.76;93244.62;1063631;55;20166;-82
2021/01/10 01:15:36;;;;;;;;;;;;;;;-5.50;86.91;93239.56;1061319;56;20182;-82
2021/01/10 01:16:37;;;;;;;;;;;;;;;-5.54;86.74;93233.44;1063523;55;20299;-81
2021/01/10 01:17:37;;;;;;;;;;;;;;;-5.53;87.05;93232.41;1063363;55;20192;-82
2021/01/10 01:18:38;;;;;;;;;;;;;;;-5.54;86.94;93225.66;1061207;56;20716;-81
2021/01/10 01:19:40;;;;;;;;;;;;;;;-5.57;86.66;93229.66;1061385;55;20287;-82
2021/01/10 01:20:40;;;;;;;;;;;;;;;-5.55;87.15;93233.78;1063343;55;20165;-84
2021/01/10 01:21:41;;;;;;;;;;;;;;;-5.54;87.05;93230.84;1065439;55;20154;-83
2021/01/10 01:22:42;;;;;;;;;;;;;;;-5.47;87.03;93238.19;1065510;55;20161;-81
2021/01/10 01:23:45;;;;;;;;;;;;;;;-5.51;87.06;93235.44;1061435;56;20162;-83
2021/01/10 01:24:45;;;;;;;;;;;;;;;-5.55;87.02;93231.16;1061393;56;20210;-81
2021/01/10 01:25:46;;;;;;;;;;;;;;;-5.68;87.44;93231.06;1063378;55;20258;-83
2021/01/10 01:26:47;;;;;;;;;;;;;;;-5.55;87.46;93231.94;1065408;55;20157;-81
2021/01/10 01:27:47;;;;;;;;;;;;;;;-5.57;87.21;93234.09;1063230;55;20158;-84
2021/01/10 01:28:48;;;;;;;;;;;;;;;-5.58;87.31;93238.50;1065504;55;20573;-80
2021/01/10 01:29:48;;;;;;;;;;;;;;;-5.69;87.13;93234.72;1065451;55;20184;-81
2021/01/10 01:30:49;;;;;;;;;;;;;;;-5.66;86.91;93238.56;1063225;55;20174;-81
2021/01/10 01:31:49;;;;;;;;;;;;;;;-5.49;86.89;93235.13;1065484;55;20169;-82
2021/01/10 01:32:50;;;;;;;;;;;;;;;-5.56;86.65;93238.22;1063298;55;20172;-83
2021/01/10 01:33:51;;;;;;;;;;;;;;;-5.60;87.05;93243.28;1063360;55;20598;-84
2021/01/10 01:34:51;;;;;;;;;;;;;;;-5.53;86.96;93244.62;1063301;56;20217;-81
2021/01/10 01:35:52;;;;;;;;;;;;;;;-5.54;87.40;93243.88;1063310;56;20637;-81
2021/01/10 01:36:53;;;;;;;;;;;;;;;-5.40;87.67;93246.28;1063122;56;20158;-85
2021/01/10 01:37:54;;;;;;;;;;;;;;;-5.35;86.76;93244.28;1061250;55;20209;-84
2021/01/10 01:38:55;;;;;;;;;;;;;;;-5.51;86.68;93252.91;1063465;56;20177;-82
2021/01/10 01:39:55;;;;;;;;;;;;;;;-5.51;86.52;93251.06;1063358;55;20183;-81
2021/01/10 01:41:02;;;;;;;;;;;;;;;-5.59;86.82;93252.62;1063340;56;20157;-81
2021/01/10 01:42:03;;;;;;;;;;;;;;;-5.57;86.67;93255.69;1065790;55;20157;-82
2021/01/10 01:43:06;;;;;;;;;;;;;;;-5.55;86.47;93249.41;1063338;56;20158;-82
2021/01/10 01:44:08;;;;;;;;;;;;;;;-5.48;86.43;93252.28;1063849;55;20251;-81
2021/01/10 01:45:11;;;;;;;;;;;;;;;-5.51;86.51;93250.31;1063237;56;20215;-83
2021/01/10 01:46:20;;;;;;;;;;;;;;;-5.57;86.77;93255.69;1061213;56;20158;-82
2021/01/10 01:47:20;;;;;;;;;;;;;;;-5.62;87.38;93258.47;1061794;55;20182;-83
2021/01/10 01:48:22;;;;;;;;;;;;;;;-5.47;86.83;93261.63;1061156;56;20142;-81
2021/01/10 01:49:23;;;;;;;;;;;;;;;-5.49;86.72;93259.31;1061186;55;20170;-81
2021/01/10 01:50:23;;;;;;;;;;;;;;;-5.54;87.33;93249.06;1061173;56;20742;-84
2021/01/10 01:51:26;;;;;;;;;;;;;;;-5.58;86.97;93261.94;1061199;55;20190;-82
2021/01/10 01:52:26;;;;;;;;;;;;;;;-5.38;86.61;93257.16;1063303;55;20185;-83
2021/01/10 01:53:27;;;;;;;;;;;;;;;-5.49;86.50;93250.75;1063401;56;20176;-87
2021/01/10 01:54:29;;;;;;;;;;;;;;;-5.51;86.39;93260.72;1065443;55;20165;-83
2021/01/10 01:55:29;;;;;;;;;;;;;;;-5.51;86.81;93258.13;1063246;55;20154;-83
2021/01/10 01:56:30;;;;;;;;;;;;;;;-5.54;86.42;93251.69;1065508;55;20177;-82
2021/01/10 01:57:31;;;;;;;;;;;;;;;-5.54;86.29;93256.13;1063292;56;20217;-83
2021/01/10 01:58:33;;;;;;;;;;;;;;;-5.52;85.92;93254.00;1059155;56;20257;-83
2021/01/10 01:59:33;;;;;;;;;;;;;;;-5.50;86.37;93255.19;1059130;56;20727;-82
2021/01/10 02:00:34;;;;;;;;;;;;;;;-5.53;86.65;93261.03;1061230;56;20173;-83
2021/01/10 02:01:35;;;;;;;;;;;;;;;-5.44;87.28;93253.19;1059009;56;20163;-83
2021/01/10 02:02:36;;;;;;;;;;;;;;;-5.49;86.80;93261.16;1061706;55;20618;-82
2021/01/10 02:03:38;;;;;;;;;;;;;;;-5.46;86.29;93256.09;1063629;55;20175;-81
2021/01/10 02:04:57;;;;;;;;;;;;;;;-5.44;86.54;93253.19;1061539;56;20189;-82
2021/01/10 02:05:59;;;;;;;;;;;;;;;-5.46;86.33;93258.69;1062111;56;20646;-83
2021/01/10 02:07:20;;;;;;;;;;;;;;;-5.41;86.53;93260.38;1063679;55;20188;-83
2021/01/10 02:08:20;;;;;;;;;;;;;;;-5.33;86.65;93254.38;1065678;55;20180;-82
2021/01/10 02:09:21;;;;;;;;;;;;;;;-5.37;86.40;93259.44;1063683;55;20161;-81
2021/01/10 02:10:24;;;;;;;;;;;;;;;-5.50;86.07;93263.00;1061581;56;20189;-83
2021/01/10 02:11:26;;;;;;;;;;;;;;;-5.49;86.28;93259.31;1063862;55;20199;-81
2021/01/10 02:12:28;;;;;;;;;;;;;;;-5.57;86.23;93260.12;1063701;55;20189;-82
2021/01/10 02:13:31;;;;;;;;;;;;;;;-5.45;85.86;93252.41;1063815;55;20188;-82
2021/01/10 02:14:34;;;;;;;;;;;;;;;-5.46;85.89;93247.53;1063606;55;20161;-82
2021/01/10 02:15:35;;;;;;;;;;;;;;;-5.46;86.68;93260.53;1063600;55;20185;-82
2021/01/10 02:16:37;;;;;;;;;;;;;;;-5.38;86.50;93257.16;1061545;56;20166;-83
2021/01/10 02:17:38;;;;;;;;;;;;;;;-5.43;86.54;93258.09;1063608;55;20781;-82
2021/01/10 02:18:39;;;;;;;;;;;;;;;-5.43;87.09;93259.94;1063676;55;20181;-82
2021/01/10 02:20:00;;;;;;;;;;;;;;;-5.41;86.69;93255.16;1061588;56;20681;-81
2021/01/10 02:21:08;;;;;;;;;;;;;;;-5.35;86.39;93251.31;1063053;55;20185;-81
2021/01/10 02:22:10;;;;;;;;;;;;;;;-5.41;86.00;93255.94;1065572;55;20172;-83
2021/01/10 02:23:12;;;;;;;;;;;;;;;-5.45;86.23;93254.25;1063742;55;20255;-81
2021/01/10 02:24:15;;;;;;;;;;;;;;;-5.47;86.19;93251.97;1063604;55;20593;-83
2021/01/10 02:25:17;;;;;;;;;;;;;;;-5.33;85.77;93246.56;1059481;56;20185;-83
2021/01/10 02:26:17;;;;;;;;;;;;;;;-5.39;85.70;93250.41;1061574;55;20162;-83
2021/01/10 02:27:19;;;;;;;;;;;;;;;-5.45;86.00;93254.25;1065784;55;20169;-82
2021/01/10 02:28:22;;;;;;;;;;;;;;;-5.49;85.89;93245.53;1065635;55;20185;-82
2021/01/10 02:29:23;;;;;;;;;;;;;;;-5.52;87.04;93254.00;1065599;55;20674;-82
2021/01/10 02:30:24;;;;;;;;;;;;;;;-5.46;86.79;93250.88;1065820;55;20184;-83
2021/01/10 02:31:29;;;;;;;;;;;;;;;-5.42;85.88;93241.37;1065727;55;20203;-83
2021/01/10 02:32:34;;;;;;;;;;;;;;;-5.39;86.78;93248.59;1061672;56;20701;-81
2021/01/10 02:33:48;;;;;;;;;;;;;;;-5.44;85.71;93248.75;1061525;56;20184;-83
2021/01/10 02:34:50;;;;;;;;;;;;;;;-5.50;85.74;93244.78;1063958;55;20233;-82
2021/01/10 02:35:50;;;;;;;;;;;;;;;-5.58;86.31;93243.72;1065741;55;21079;-81
2021/01/10 02:37:23;;;;;;;;;;;;;;;-5.47;86.80;93238.94;1065657;55;20704;-81
2021/01/10 02:38:43;;;;;;;;;;;;;;;-5.38;86.50;93238.94;1054747;56;20300;-82
2021/01/10 02:39:44;;;;;;;;;;;;;;;-5.41;86.44;93231.72;1056933;56;20202;-83
2021/01/10 02:41:03;;;;;;;;;;;;;;;-5.54;86.28;93235.28;1061510;56;20666;-82
2021/01/10 02:42:33;;;;;;;;;;;;;;;-5.45;86.11;93234.19;1062220;56;20276;-82
2021/01/10 02:43:34;;;;;;;;;;;;;;;-5.44;86.50;93234.97;1062502;56;20184;-82
2021/01/10 02:44:36;;;;;;;;;;;;;;;-5.49;86.20;93235.13;1063523;55;20185;-83
2021/01/10 02:45:40;;;;;;;;;;;;;;;-5.49;86.69;93241.09;1063617;55;20153;-84
2021/01/10 02:46:41;;;;;;;;;;;;;;;-5.43;86.50;93236.50;1063750;55;20229;-82
2021/01/10 02:47:42;;;;;;;;;;;;;;;-5.41;85.95;93237.69;1063507;55;20298;-82
2021/01/10 02:48:44;;;;;;;;;;;;;;;-5.40;86.37;93230.66;1063576;55;20290;-82
2021/01/10 02:49:44;;;;;;;;;;;;;;;-5.42;86.26;93233.56;1059378;56;20256;-82
2021/01/10 02:50:45;;;;;;;;;;;;;;;-5.45;86.34;93228.97;1061461;56;20693;-82
2021/01/10 02:51:46;;;;;;;;;;;;;;;-5.49;86.06;93230.69;1065794;55;20149;-82
2021/01/10 02:52:47;;;;;;;;;;;;;;;-5.50;86.71;93233.59;1061427;56;20186;-83
2021/01/10 02:53:51;;;;;;;;;;;;;;;-5.48;86.17;93228.84;1063714;55;20161;-83
2021/01/10 02:54:52;;;;;;;;;;;;;;;-5.49;86.45;93225.47;1063494;55;20158;-82
2021/01/10 02:55:52;;;;;;;;;;;;;;;-5.48;86.51;93229.62;1062380;56;20728;-82
2021/01/10 02:56:53;;;;;;;;;;;;;;;-5.52;86.47;93220.91;1061467;56;20380;-81
2021/01/10 02:57:57;;;;;;;;;;;;;;;-5.44;87.15;93229.75;1063598;55;20186;-84
2021/01/10 02:58:59;;;;;;;;;;;;;;;-5.43;86.70;93229.44;1063623;55;20210;-81
2021/01/10 03:00:02;;;;;;;;;;;;;;;-5.46;86.79;93230.06;1063589;55;20180;-84
2021/01/10 03:01:06;;;;;;;;;;;;;;;-5.45;86.68;93238.63;1061491;56;20743;-81
2021/01/10 03:02:11;;;;;;;;;;;;;;;-5.46;86.52;93235.25;1059709;56;20174;-82
2021/01/10 03:03:13;;;;;;;;;;;;;;;-5.35;86.74;93233.84;1061468;56;20190;-81
2021/01/10 03:04:15;;;;;;;;;;;;;;;-5.41;87.03;93226.50;1061527;56;20166;-82
2021/01/10 03:05:16;;;;;;;;;;;;;;;-5.42;87.58;93230.97;1059434;56;20158;-83
2021/01/10 03:06:17;;;;;;;;;;;;;;;-5.37;86.96;93230.78;1059416;56;20175;-81
2021/01/10 03:07:19;;;;;;;;;;;;;;;-5.44;87.26;93233.13;1061407;56;20217;-82
2021/01/10 03:08:20;;;;;;;;;;;;;;;-5.37;86.50;93237.84;1063644;55;20208;-82
2021/01/10 03:09:21;;;;;;;;;;;;;;;-5.38;86.93;93224.06;1063475;55;20162;-81
2021/01/10 03:10:22;;;;;;;;;;;;;;;-5.37;86.84;93228.19;1061302;56;20210;-82
2021/01/10 03:11:23;;;;;;;;;;;;;;;-5.26;86.42;93235.66;1061448;56;20173;-82
2021/01/10 03:12:25;;;;;;;;;;;;;;;-5.33;86.57;93236.12;1061571;56;20166;-82
2021/01/10 03:13:28;;;;;;;;;;;;;;;-5.33;86.72;93228.31;1061527;56;20150;-81
2021/01/10 03:14:28;;;;;;;;;;;;;;;-5.26;86.62;93233.06;1061380;56;20167;-83
2021/01/10 03:15:29;;;;;;;;;;;;;;;-5.32;86.37;93232.44;1061469;56;20181;-82
2021/01/10 03:16:30;;;;;;;;;;;;;;;-5.32;86.29;93229.84;1059187;56;20192;-83
2021/01/10 03:17:38;;;;;;;;;;;;;;;-5.35;86.47;93228.66;1061421;56;20192;-82
2021/01/10 03:18:39;;;;;;;;;;;;;;;-5.36;85.96;93240.13;1063645;55;20569;-82
2021/01/10 03:19:40;;;;;;;;;;;;;;;-5.38;86.12;93241.53;1061471;56;20158;-81
2021/01/10 03:20:40;;;;;;;;;;;;;;;-5.44;85.94;93225.31;1059294;56;20217;-81
2021/01/10 03:21:41;;;;;;;;;;;;;;;-5.43;86.03;93237.25;1061378;56;20292;-82
2021/01/10 03:22:42;;;;;;;;;;;;;;;-5.37;86.73;93232.63;1061295;56;20177;-83
2021/01/10 03:23:42;;;;;;;;;;;;;;;-5.44;86.67;93225.31;1057119;56;20655;-82
2021/01/10 03:24:43;;;;;;;;;;;;;;;-5.39;86.73;93222.53;1059330;56;20197;-84
2021/01/10 03:25:43;;;;;;;;;;;;;;;-5.41;87.03;93221.31;1061409;56;20647;-83
2021/01/10 03:26:45;;;;;;;;;;;;;;;-5.39;86.50;93224.38;1059363;56;20579;-82
2021/01/10 03:27:45;;;;;;;;;;;;;;;-5.39;86.71;93214.72;1061417;56;20162;-83
2021/01/10 03:28:46;;;;;;;;;;;;;;;-5.35;86.25;93222.69;1063604;55;20165;-81
2021/01/10 03:29:47;;;;;;;;;;;;;;;-5.38;86.72;93224.06;1061427;56;20170;-80
2021/01/10 03:30:47;;;;;;;;;;;;;;;-5.39;86.60;93222.53;1063453;55;20187;-82
2021/01/10 03:31:48;;;;;;;;;;;;;;;-5.36;86.18;93214.06;1065674;55;20164;-82
2021/01/10 03:32:49;;;;;;;;;;;;;;;-5.45;87.07;93217.78;1061369;56;20180;-81
2021/01/10 03:33:49;;;;;;;;;;;;;;;-5.41;86.67;93216.84;1059404;56;20158;-81
2021/01/10 03:34:50;;;;;;;;;;;;;;;-5.34;86.11;93216.38;1061371;56;20158;-82
2021/01/10 03:35:50;;;;;;;;;;;;;;;-5.35;86.16;93220.84;1063493;55;20623;-83
2021/01/10 03:36:51;;;;;;;;;;;;;;;-5.40;85.97;93212.41;1063522;55;20185;-82
2021/01/10 03:37:51;;;;;;;;;;;;;;;-5.44;86.02;93216.75;1059129;56;20159;-82
2021/01/10 03:38:52;;;;;;;;;;;;;;;-5.40;85.87;93218.41;1059166;56;20194;-83
2021/01/10 03:39:53;;;;;;;;;;;;;;;-5.37;86.42;93217.00;1063612;55;20177;-83
2021/01/10 03:40:53;;;;;;;;;;;;;;;-5.39;86.37;93216.56;1066096;55;20166;-82
2021/01/10 03:41:53;;;;;;;;;;;;;;;-5.32;86.64;93209.78;1063424;55;20694;-82
2021/01/10 03:42:54;;;;;;;;;;;;;;;-5.14;86.10;93215.66;1059308;56;20193;-82
2021/01/10 03:43:54;;;;;;;;;;;;;;;-5.33;86.07;93220.50;1063685;55;20158;-81
2021/01/10 03:44:55;;;;;;;;;;;;;;;-5.34;85.92;93222.34;1063477;55;20215;-82
2021/01/10 03:45:55;;;;;;;;;;;;;;;-5.33;86.55;93223.88;1061430;56;20599;-82
2021/01/10 03:46:56;;;;;;;;;;;;;;;-5.43;86.16;93213.06;1063515;55;20731;-82
2021/01/10 03:47:57;;;;;;;;;;;;;;;-5.40;86.42;93217.63;1059330;56;20155;-82
2021/01/10 03:48:57;;;;;;;;;;;;;;;-5.44;86.56;93208.94;1063560;55;20166;-83
2021/01/10 03:49:58;;;;;;;;;;;;;;;-5.36;87.06;93214.06;1063570;55;20161;-81
2021/01/10 03:50:58;;;;;;;;;;;;;;;-5.44;86.91;93211.53;1061351;56;20646;-82
2021/01/10 03:51:59;;;;;;;;;;;;;;;-5.44;87.16;93206.31;1063506;55;20590;-82
2021/01/10 03:53:00;;;;;;;;;;;;;;;-5.25;87.02;93213.75;1063483;55;20247;-82
2021/01/10 03:54:00;;;;;;;;;;;;;;;-5.33;86.40;93210.09;1061348;56;20673;-82
2021/01/10 03:55:01;;;;;;;;;;;;;;;-5.39;86.51;93217.31;1061146;56;20154;-81
2021/01/10 03:56:02;;;;;;;;;;;;;;;-5.35;86.80;93212.25;1062694;55;20189;-80
2021/01/10 03:57:03;;;;;;;;;;;;;;;-5.43;86.82;93211.22;1065515;55;20252;-83
2021/01/10 03:58:03;;;;;;;;;;;;;;;-5.40;86.58;93210.59;1063511;55;20225;-82
2021/01/10 03:59:04;;;;;;;;;;;;;;;-5.34;86.45;93205.97;1061444;56;20158;-83
2021/01/10 04:00:06;;;;;;;;;;;;;;;-5.35;86.82;93207.06;1063466;55;20154;-84
2021/01/10 04:01:10;;;;;;;;;;;;;;;-5.36;86.57;93206.25;1061393;56;20161;-83
2021/01/10 04:02:12;;;;;;;;;;;;;;;-5.32;86.71;93212.38;1063607;55;20196;-82
2021/01/10 04:03:17;;;;;;;;;;;;;;;-5.23;86.54;93207.12;1067872;55;20257;-85
2021/01/10 04:04:21;;;;;;;;;;;;;;;-5.34;86.37;93205.97;1065691;55;20161;-82
2021/01/10 04:05:21;;;;;;;;;;;;;;;-5.42;86.69;93209.37;1065587;55;20172;-81
2021/01/10 04:06:22;;;;;;;;;;;;;;;-5.42;87.03;93201.56;1065489;55;20154;-83
2021/01/10 04:07:22;;;;;;;;;;;;;;;-5.37;87.03;93202.13;1063419;55;20154;-82
2021/01/10 04:08:22;;;;;;;;;;;;;;;-5.37;87.37;93207.34;1061222;56;20216;-82
2021/01/10 04:09:23;;;;;;;;;;;;;;;-5.34;87.29;93198.16;1063411;55;20250;-82
2021/01/10 04:10:23;;;;;;;;;;;;;;;-5.33;87.22;93197.06;1063571;55;20590;-82
2021/01/10 04:11:24;;;;;;;;;;;;;;;-5.46;87.73;93205.84;1065657;55;20207;-83
2021/01/10 04:12:24;;;;;;;;;;;;;;;-5.32;87.88;93196.75;1065693;55;20153;-82
2021/01/10 04:13:25;;;;;;;;;;;;;;;-5.32;87.07;93201.97;1063534;55;20185;-82
2021/01/10 04:14:26;;;;;;;;;;;;;;;-5.36;87.25;93200.28;1061357;56;20161;-83
2021/01/10 04:15:28;;;;;;;;;;;;;;;-5.34;87.26;93204.13;1061450;55;20193;-82
2021/01/10 04:16:29;;;;;;;;;;;;;;;-5.35;87.69;93196.63;1063458;55;20180;-84
2021/01/10 04:17:29;;;;;;;;;;;;;;;-5.37;87.64;93196.94;1063386;55;20153;-82
2021/01/10 04:18:30;;;;;;;;;;;;;;;-5.35;88.14;93201.84;1063490;55;20629;-81
2021/01/10 04:19:30;;;;;;;;;;;;;;;-5.29;88.42;93205.03;1065626;55;20641;-82
2021/01/10 04:20:30;;;;;;;;;;;;;;;-5.29;88.29;93200.56;1067984;55;20141;-84
2021/01/10 04:21:32;;;;;;;;;;;;;;;-5.25;87.45;93200.72;1063292;55;20177;-82
2021/01/10 04:22:32;;;;;;;;;;;;;;;-5.29;87.49;93195.37;1061167;55;20745;-82
2021/01/10 04:23:33;;;;;;;;;;;;;;;-5.30;86.95;93200.91;1065591;55;20210;-82
2021/01/10 04:24:33;;;;;;;;;;;;;;;-5.26;86.87;93199.97;1060981;56;20162;-84
2021/01/10 04:25:34;;;;;;;;;;;;;;;-5.27;87.10;93208.06;1061242;56;20291;-83
2021/01/10 04:26:38;;;;;;;;;;;;;;;-5.33;86.91;93200.44;1063439;55;20153;-83
2021/01/10 04:27:38;;;;;;;;;;;;;;;-5.35;87.46;93202.59;1065656;55;20196;-82
2021/01/10 04:28:39;;;;;;;;;;;;;;;-5.26;87.95;93205.16;1063440;55;20173;-82
2021/01/10 04:29:39;;;;;;;;;;;;;;;-5.19;87.54;93202.06;1063472;55;20193;-82
2021/01/10 04:30:40;;;;;;;;;;;;;;;-5.21;86.97;93210.19;1063342;55;20197;-82
2021/01/10 04:31:40;;;;;;;;;;;;;;;-5.23;87.52;93207.12;1063526;55;20307;-80
2021/01/10 04:32:41;;;;;;;;;;;;;;;-5.25;86.25;93211.91;1065469;55;20634;-82
2021/01/10 04:33:41;;;;;;;;;;;;;;;-5.29;86.40;93207.63;1063370;55;20255;-82
2021/01/10 04:34:42;;;;;;;;;;;;;;;-5.24;86.76;93210.06;1065578;55;20184;-83
2021/01/10 04:35:42;;;;;;;;;;;;;;;-5.36;86.42;93201.06;1065429;55;20161;-82
2021/01/10 04:36:43;;;;;;;;;;;;;;;-5.30;86.49;93212.09;1065594;55;20200;-83
2021/01/10 04:37:43;;;;;;;;;;;;;;;-5.38;86.57;93203.22;1063284;55;20185;-81
2021/01/10 04:38:43;;;;;;;;;;;;;;;-5.33;86.90;93204.88;1061274;56;20150;-82
2021/01/10 04:39:44;;;;;;;;;;;;;;;-5.29;86.56;93203.19;1063440;55;20154;-83
2021/01/10 04:40:44;;;;;;;;;;;;;;;-5.30;86.42;93201.66;1063399;55;20162;-81
2021/01/10 04:41:45;;;;;;;;;;;;;;;-5.31;86.58;93197.53;1061289;56;20271;-82
2021/01/10 04:42:45;;;;;;;;;;;;;;;-5.27;87.26;93208.06;1061256;56;20172;-81
2021/01/10 04:43:46;;;;;;;;;;;;;;;-5.23;86.82;93211.56;1063487;55;20154;-81
2021/01/10 04:44:46;;;;;;;;;;;;;;;-5.14;86.28;93202.63;1061259;56;20618;-81
2021/01/10 04:45:48;;;;;;;;;;;;;;;-5.22;86.41;93213.88;1061432;56;20177;-82
2021/01/10 04:46:49;;;;;;;;;;;;;;;-5.29;86.53;93213.59;1061228;56;20654;-84
2021/01/10 04:47:49;;;;;;;;;;;;;;;-5.27;86.69;93211.44;1061286;56;20185;-81
2021/01/10 04:48:50;;;;;;;;;;;;;;;-5.23;86.42;93214.19;1065438;55;20626;-81
2021/01/10 04:49:51;;;;;;;;;;;;;;;-5.20;86.94;93203.91;1063381;55;20233;-81
2021/01/10 04:50:52;;;;;;;;;;;;;;;-5.24;87.14;93205.59;1063439;55;20154;-82
2021/01/10 04:51:53;;;;;;;;;;;;;;;-5.21;85.54;93199.00;1063364;55;20169;-82
2021/01/10 04:52:56;;;;;;;;;;;;;;;-5.22;85.89;93203.47;1063448;55;20162;-82
2021/01/10 04:54:00;;;;;;;;;;;;;;;-5.15;86.25;93208.16;1061473;55;20720;-83
2021/01/10 04:55:01;;;;;;;;;;;;;;;-5.22;85.68;93203.47;1061386;56;20229;-82
2021/01/10 04:56:03;;;;;;;;;;;;;;;-5.27;86.13;93203.63;1063179;55;20184;-81
2021/01/10 04:57:06;;;;;;;;;;;;;;;-5.34;85.48;93211.94;1063490;55;20200;-83
2021/01/10 04:58:09;;;;;;;;;;;;;;;-5.30;85.49;93204.25;1061478;56;20166;-81
2021/01/10 04:59:11;;;;;;;;;;;;;;;-5.25;85.28;93208.53;1061458;56;20170;-81
2021/01/10 05:00:12;;;;;;;;;;;;;;;-5.27;86.05;93206.22;1059061;56;20166;-81
2021/01/10 05:01:16;;;;;;;;;;;;;;;-5.13;86.11;93208.63;1061199;56;20155;-83
2021/01/10 05:02:22;;;;;;;;;;;;;;;-5.16;85.28;93211.84;1063623;55;20241;-82
2021/01/10 05:03:30;;;;;;;;;;;;;;;-5.24;85.93;93210.81;1063753;55;20184;-82
2021/01/10 05:04:30;;;;;;;;;;;;;;;-5.22;86.09;93213.12;1065476;55;20157;-82
2021/01/10 05:05:35;;;;;;;;;;;;;;;-5.24;85.88;93207.44;1063450;55;20184;-81
2021/01/10 05:06:36;;;;;;;;;;;;;;;-5.26;85.52;93207.00;1061284;56;20188;-84
2021/01/10 05:07:36;;;;;;;;;;;;;;;-5.22;85.51;93213.88;1061406;56;20182;-83
2021/01/10 05:08:38;;;;;;;;;;;;;;;-5.25;85.66;93206.69;1061264;55;20154;-81
2021/01/10 05:09:40;;;;;;;;;;;;;;;-5.26;86.00;93210.37;1061306;56;20162;-81
2021/01/10 05:10:41;;;;;;;;;;;;;;;-5.15;86.03;93208.94;1061262;56;20162;-81
2021/01/10 05:11:42;;;;;;;;;;;;;;;-5.17;85.64;93211.09;1061184;56;20626;-81
2021/01/10 05:12:42;;;;;;;;;;;;;;;-5.20;85.59;93216.16;1063459;55;20597;-82
2021/01/10 05:13:43;;;;;;;;;;;;;;;-5.18;85.67;93214.00;1063398;55;20209;-82
2021/01/10 05:14:43;;;;;;;;;;;;;;;-5.23;85.92;93214.94;1061261;56;20213;-81
2021/01/10 05:15:46;;;;;;;;;;;;;;;-5.30;85.82;93213.91;1061305;56;20181;-82
2021/01/10 05:16:47;;;;;;;;;;;;;;;-5.18;85.66;93208.78;1061148;56;21090;-81
2021/01/10 05:17:58;;;;;;;;;;;;;;;-5.15;85.26;93206.31;1061086;56;20264;-82
2021/01/10 05:18:59;;;;;;;;;;;;;;;-5.14;85.77;93212.28;1061606;56;20215;-83
2021/01/10 05:19:59;;;;;;;;;;;;;;;-5.19;85.02;93212.47;1061267;56;20627;-82
2021/01/10 05:21:02;;;;;;;;;;;;;;;-5.29;84.82;93200.56;1063469;55;20181;-83
2021/01/10 05:22:08;;;;;;;;;;;;;;;-5.27;85.31;93205.47;1061166;56;20186;-81
2021/01/10 05:23:09;;;;;;;;;;;;;;;-5.15;85.89;93215.97;1059216;56;20200;-82